Latest Weather Observations for Cultana (Defence)

IDS60801

Issued at 8:41 pm CDT Sunday 24 January 2021 (issued every 10 minutes, with the page automatically refreshed every 10 minutes)

About weather observations | Map of weather stations | Latest weather observations for SA | Other Formats
Station Details ID: 018229 Name: CULTANA (DEFENCE) Lat: -32.68 Lon: 137.37 Height: 171.0 m
Data from the previous 72 hours. | See also: Recent months at Cultana (Defence)
Date/Time
CDT
Temp
°C
App
Temp
°C
Dew
Point
°C
Rel
Hum
%
Delta-T
°C
Wind Press
QNH
hPa
Press
MSL
hPa
Rain since
9am
mm
Dir  Spd
km/h
Gust
km/h
Spd
kts
Gust
kts
24/08:30pm 34.9 25.9 6.2 17 15.8 WSW 43 52 23 28 - - 0.0
24/08:00pm 36.1 27.1 6.3 16 16.5 W 43 56 23 30 - - 0.0
24/07:51pm 37.1 29.0 5.2 14 17.4 WSW 37 56 20 30 - - 0.0
24/07:50pm 37.5 29.6 4.4 13 17.9 WSW 35 52 19 28 - - 0.0
24/07:30pm 38.5 31.4 1.5 10 19.2 W 28 32 15 17 - - 0.0
24/07:00pm 38.8 31.5 0.3 9 19.7 W 28 35 15 19 - - 0.0
24/06:30pm 39.4 31.4 0.7 9 20.0 W 32 39 17 21 - - 0.0
24/06:00pm 39.8 30.7 -0.6 8 20.5 WNW 37 46 20 25 - - 0.0
24/05:40pm 40.4 34.2 -0.2 8 20.8 WNW 22 46 12 25 - - 0.0
24/05:30pm 40.4 36.9 1.4 9 20.5 N 9 20 5 11 - - 0.0
24/05:07pm 40.2 34.8 1.3 9 20.4 NNE 19 50 10 27 - - 0.0
24/05:00pm 40.6 36.1 0.0 8 20.9 NNE 13 24 7 13 - - 0.0
24/04:30pm 41.4 35.9 0.5 8 21.3 NNW 19 28 10 15 - - 0.0
24/04:00pm 41.4 37.0 0.5 8 21.3 NNW 13 24 7 13 - - 0.0
24/03:30pm 41.3 36.9 0.5 8 21.2 N 13 28 7 15 - - 0.0
24/03:00pm 41.8 36.7 0.8 8 21.5 N 17 32 9 17 - - 0.0
24/02:30pm 42.4 36.8 1.3 8 21.8 N 20 39 11 21 - - 0.0
24/02:00pm 40.5 34.2 1.5 9 20.5 N 24 32 13 17 - - 0.0
24/01:30pm 40.5 34.1 3.0 10 20.2 NNE 26 33 14 18 - - 0.0
24/01:00pm 39.8 33.3 2.5 10 19.8 NNE 26 35 14 19 - - 0.0
24/12:30pm 40.0 32.4 2.6 10 19.9 N 32 46 17 25 - - 0.0
24/12:04pm 40.0 32.2 2.6 10 19.9 NNE 33 52 18 28 - - 0.0
24/12:00pm 40.6 33.0 3.1 10 20.2 N 32 44 17 24 - - 0.0
24/11:30am 39.6 32.0 3.7 11 19.4 N 33 44 18 24 - - 0.0
24/11:00am 39.2 32.1 3.4 11 19.2 N 30 41 16 22 - - 0.0
24/10:30am 37.5 31.8 0.7 10 18.8 N 20 28 11 15 - - 0.0
24/10:00am 36.1 29.5 -0.3 10 18.1 NNE 24 33 13 18 - - 0.0
24/09:30am 34.1 28.6 -1.8 10 17.2 NNE 17 20 9 11 - - 0.0
24/09:00am 32.6 26.6 -2.9 10 16.6 NNE 19 24 10 13 - - 0.0
24/08:30am 31.7 25.8 -2.3 11 15.9 NNE 19 24 10 13 - - 0.0
24/08:00am 30.1 24.0 -2.4 12 15.0 NE 20 24 11 13 - - 0.0
24/07:30am 29.1 22.8 -1.1 14 14.2 NE 22 24 12 13 - - 0.0
24/07:00am 29.9 23.5 -1.5 13 14.7 NE 22 26 12 14 - - 0.0
24/06:30am 30.2 24.2 -1.2 13 14.8 NE 20 22 11 12 - - 0.0
24/06:00am 30.7 24.8 -1.9 12 15.3 NE 19 20 10 11 - - 0.0
24/05:30am 29.7 24.4 -0.6 14 14.4 ENE 17 17 9 9 - - 0.0
24/05:00am 29.8 24.5 -0.5 14 14.4 NE 17 17 9 9 - - 0.0
24/04:30am 29.2 24.4 -0.1 15 14.0 ENE 15 17 8 9 - - 0.0
24/04:00am 29.8 24.9 -0.5 14 14.4 ENE 15 17 8 9 - - 0.0
24/03:30am 30.0 24.7 -0.4 14 14.5 ENE 17 17 9 9 - - 0.0
24/03:00am 30.6 25.4 0.1 14 14.8 E 17 20 9 11 - - 0.0
24/02:30am 30.8 25.2 1.2 15 14.6 E 20 22 11 12 - - 0.0
24/02:00am 30.8 25.2 1.2 15 14.6 ESE 20 22 11 12 - - 0.0
24/01:30am 29.5 25.1 2.7 18 13.5 SE 15 17 8 9 - - 0.0
24/01:00am 29.9 25.3 1.4 16 14.0 S 15 19 8 10 - - 0.0
24/12:30am 31.6 25.6 0.9 14 15.2 SE 22 26 12 14 - - 0.0
24/12:00am 31.4 25.3 2.6 16 14.6 SE 24 32 13 17 - - 0.0
 
Date/Time
CDT
Temp
°C
App
Temp
°C
Dew
Point
°C
Rel
Hum
%
Delta-T
°C
Wind Press
QNH
hPa
Press
MSL
hPa
Rain since
9am
mm
Dir  Spd
km/h
Gust
km/h
Spd
kts
Gust
kts
23/11:30pm 31.4 26.1 5.0 19 13.9 SE 22 32 12 17 - - 0.0
23/11:00pm 31.4 26.3 4.2 18 14.2 SE 20 26 11 14 - - 0.0
23/10:30pm 32.6 26.8 -1.7 11 16.3 SSE 19 24 10 13 - - 0.0
23/10:00pm 33.1 27.9 -2.6 10 16.8 SSE 15 20 8 11 - - 0.0
23/09:30pm 33.8 27.7 -2.0 10 17.1 SSE 20 22 11 12 - - 0.0
23/09:00pm 34.4 27.8 -3.0 9 17.6 SE 22 28 12 15 - - 0.0
23/08:30pm 35.3 30.2 -2.3 9 18.1 SSE 15 20 8 11 - - 0.0
23/08:00pm 36.7 29.4 -2.9 8 19.0 SSE 26 32 14 17 - - 0.0
23/07:30pm 38.2 31.0 -1.8 8 19.7 SE 26 33 14 18 - - 0.0
23/07:00pm 39.1 32.0 -1.1 8 20.2 SE 26 33 14 18 - - 0.0
23/06:30pm 40.0 32.8 -2.3 7 20.9 SE 26 33 14 18 - - 0.0
23/06:00pm 41.1 35.1 -1.5 7 21.5 SE 20 30 11 16 - - 0.0
23/05:30pm 42.3 38.2 -2.7 6 22.5 NE 9 26 5 14 - - 0.0
23/05:00pm 41.3 37.5 -3.4 6 22.0 S 7 20 4 11 - - 0.0
23/04:30pm 41.4 36.1 -3.4 6 22.0 E 15 24 8 13 - - 0.0
23/04:00pm 41.8 37.3 -3.1 6 22.2 NNE 11 22 6 12 - - 0.0
23/03:30pm 41.5 38.3 -3.3 6 22.1 SSW 4 6 2 3 - - 0.0
23/03:00pm 41.2 35.9 -3.5 6 21.9 N 15 20 8 11 - - 0.0
23/02:30pm 41.1 37.3 -3.6 6 21.9 N 7 13 4 7 - - 0.0
23/02:00pm 41.2 37.0 -3.5 6 21.9 N 9 33 5 18 - - 0.0
23/01:30pm 39.8 35.2 -4.5 6 21.2 NNW 11 20 6 11 - - 0.0
23/01:00pm 39.2 34.4 -2.9 7 20.6 NE 13 24 7 13 - - 0.0
23/12:30pm 38.8 32.8 -3.2 7 20.4 NNE 19 30 10 16 - - 0.0
23/12:00pm 37.4 31.6 -4.2 7 19.7 NE 17 28 9 15 - - 0.0
23/11:30am 36.7 30.7 -1.3 9 18.7 NNE 20 32 11 17 - - 0.0
23/11:00am 34.8 29.4 -1.3 10 17.6 NE 17 24 9 13 - - 0.0
23/10:30am 33.8 29.2 -0.7 11 16.8 NE 13 17 7 9 - - 0.0
23/10:00am 32.3 27.8 2.4 15 15.2 NE 15 22 8 12 - - 0.0
23/09:30am 31.1 25.7 2.3 16 14.5 ENE 20 26 11 14 - - 0.0
23/09:00am 29.1 24.9 3.9 20 12.9 ENE 15 19 8 10 - - 0.0
23/08:30am 27.2 24.3 6.6 27 10.9 E 11 15 6 8 - - 0.0
23/08:27am 26.9 24.6 7.4 29 10.5 E 9 15 5 8 - - 0.0
23/08:00am 21.9 20.8 10.7 49 6.2 SSE 7 9 4 5 - - 0.0
23/07:30am 21.5 19.5 11.5 53 5.6 SE 13 15 7 8 - - 0.0
23/07:00am 18.7 16.1 9.5 55 4.9 SSE 13 17 7 9 - - 0.0
23/06:30am 21.1 18.1 12.0 56 5.1 SE 19 20 10 11 - - 0.0
23/06:00am 19.4 17.2 10.7 57 4.8 SSE 13 15 7 8 - - 0.0
23/05:30am 19.0 16.0 10.6 58 4.6 S 17 19 9 10 - - 0.0
23/05:00am 19.3 16.7 10.8 58 4.6 S 15 15 8 8 - - 0.0
23/04:30am 18.9 15.8 10.2 57 4.7 SSW 17 19 9 10 - - 0.0
23/04:00am 19.1 17.5 10.1 56 4.9 SW 9 13 5 7 - - 0.0
23/03:30am 19.9 18.8 10.0 53 5.4 SSW 6 9 3 5 - - 0.0
23/03:00am 20.4 17.6 9.9 51 5.7 SSE 15 19 8 10 - - 0.0
23/02:30am 20.4 17.3 10.2 52 5.6 S 17 19 9 10 - - 0.0
23/02:00am 21.1 17.8 9.4 47 6.3 S 17 19 9 10 - - 0.0
23/01:30am 21.9 18.3 8.4 42 7.2 S 17 20 9 11 - - 0.0
23/01:00am 22.6 17.8 7.2 37 8.0 SSE 22 26 12 14 - - 0.0
23/12:30am 23.4 17.7 6.7 34 8.7 SSE 26 30 14 16 - - 0.0
23/12:00am 23.7 18.2 6.0 32 9.1 S 24 30 13 16 - - 0.0
 
Date/Time
CDT
Temp
°C
App
Temp
°C
Dew
Point
°C
Rel
Hum
%
Delta-T
°C
Wind Press
QNH
hPa
Press
MSL
hPa
Rain since
9am
mm
Dir  Spd
km/h
Gust
km/h
Spd
kts
Gust
kts
22/11:30pm 24.3 18.4 5.6 30 9.6 S 26 30 14 16 - - 0.0
22/11:00pm 24.7 19.2 6.0 30 9.7 S 24 28 13 15 - - 0.0
22/10:30pm 25.3 19.4 3.9 25 10.7 S 24 32 13 17 - - 0.0
22/10:00pm 25.9 19.8 2.6 22 11.4 S 24 30 13 16 - - 0.0
22/09:30pm 26.7 20.8 1.9 20 12.1 SSE 22 28 12 15 - - 0.0
22/09:00pm 27.9 21.8 -2.0 14 13.7 SSE 20 30 11 16 - - 0.0
22/08:30pm 29.3 22.2 -4.2 11 14.9 SE 24 30 13 16 - - 0.0
22/08:00pm 31.0 22.8 -4.1 10 15.9 SSE 30 37 16 20 - - 0.0
22/07:30pm 33.5 26.7 -5.2 8 17.5 SSE 22 32 12 17 - - 0.0
22/07:00pm 33.7 25.6 -6.8 7 17.9 SE 28 33 15 18 - - 0.0
22/06:30pm 35.0 27.2 -7.9 6 18.8 SSE 26 33 14 18 - - 0.0
22/06:00pm 35.2 27.6 -5.7 7 18.6 SE 26 35 14 19 - - 0.0
22/05:30pm 36.1 29.1 -7.1 6 19.3 SSE 22 32 12 17 - - 0.0
22/05:00pm 36.7 29.0 -6.7 6 19.6 S 26 35 14 19 - - 0.0
22/04:30pm 37.0 30.4 -6.5 6 19.8 S 20 33 11 18 - - 0.0
22/04:00pm 36.3 30.1 -5.0 7 19.1 S 19 30 10 16 - - 0.0
22/03:30pm 36.7 30.3 -6.7 6 19.6 SSE 19 32 10 17 - - 0.0
22/03:00pm 36.7 31.7 -4.7 7 19.3 SSE 13 19 7 10 - - 0.0
22/02:30pm 36.7 31.3 -4.7 7 19.3 SW 15 28 8 15 - - 0.0
22/02:00pm 35.6 30.7 -3.7 8 18.5 SE 13 24 7 13 - - 0.0
22/01:30pm 35.8 29.9 -2.0 9 18.3 SSE 19 26 10 14 - - 0.0
22/01:00pm 34.8 29.8 -1.3 10 17.6 SSW 15 22 8 12 - - 0.0
22/12:30pm 33.8 29.0 0.5 12 16.6 SE 15 26 8 14 - - 0.0
22/12:00pm 33.7 28.9 2.5 14 16.0 SSE 17 24 9 13 - - 0.0
22/11:30am 32.5 28.6 3.5 16 15.0 SSE 13 20 7 11 - - 0.0
22/11:00am 30.7 27.5 8.4 25 12.4 SSE 15 24 8 13 - - 0.0
22/10:30am 29.3 26.2 8.9 28 11.4 S 15 20 8 11 - - 0.0
22/10:00am 27.7 24.9 8.6 30 10.5 S 13 19 7 10 - - 0.0
22/09:30am 26.5 23.7 8.5 32 9.8 SE 13 17 7 9 - - 0.0
22/09:00am 24.5 20.4 8.0 35 8.8 S 19 24 10 13 - - 0.0
22/08:30am 23.3 18.7 6.6 34 8.7 S 20 22 11 12 - - 0.0
22/08:00am 21.7 17.2 6.0 36 8.0 S 19 20 10 11 - - 0.0
22/07:30am 20.2 16.5 6.5 41 6.9 SSE 15 19 8 10 - - 0.0
22/07:00am 18.5 15.3 7.0 47 5.8 S 13 17 7 9 - - 0.0
22/06:30am 18.2 14.3 7.0 48 5.7 S 17 19 9 10 - - 0.0
22/06:00am 19.0 15.2 7.4 47 5.9 S 17 19 9 10 - - 0.0
22/05:30am 18.9 15.1 7.7 48 5.8 S 17 19 9 10 - - 0.0
22/05:00am 18.1 15.7 7.2 49 5.5 SSW 9 11 5 6 - - 0.0
22/04:30am 18.9 16.6 7.4 47 5.9 SSW 9 11 5 6 - - 0.0
22/04:00am 19.5 16.5 7.6 46 6.1 SSW 13 15 7 8 - - 0.0
22/03:30am 20.0 15.9 8.0 46 6.3 SSW 19 20 10 11 - - 0.0
22/03:00am 20.3 17.1 8.6 47 6.2 SSW 15 17 8 9 - - 0.0
22/02:30am 21.0 17.5 8.9 46 6.5 S 17 19 9 10 - - 0.0
22/02:00am 21.6 18.1 8.8 44 6.8 S 17 19 9 10 - - 0.0
22/01:30am 22.3 18.4 8.8 42 7.2 S 19 22 10 12 - - 0.0
22/01:00am 22.9 18.9 8.2 39 7.8 S 19 22 10 12 - - 0.0
22/12:30am 23.6 19.3 7.7 36 8.4 S 20 24 11 13 - - 0.0
22/12:00am 24.4 19.9 7.1 33 9.1 S 20 28 11 15 - - 0.0
 
Date/Time
CDT
Temp
°C
App
Temp
°C
Dew
Point
°C
Rel
Hum
%
Delta-T
°C
Wind Press
QNH
hPa
Press
MSL
hPa
Rain since
9am
mm
Dir  Spd
km/h
Gust
km/h
Spd
kts
Gust
kts
21/11:30pm 25.3 19.9 6.5 30 9.8 S 24 32 13 17 - - 0.0
21/11:00pm 26.1 20.4 5.1 26 10.8 SSE 24 30 13 16 - - 0.0
21/10:30pm 27.2 20.6 4.3 23 11.7 S 28 33 15 18 - - 0.0
21/10:00pm 27.9 20.9 2.2 19 12.7 S 28 32 15 17 - - 0.0
21/09:30pm 28.9 20.7 -1.2 14 14.1 S 32 41 17 22 - - 0.0
21/09:00pm 29.7 21.9 -0.6 14 14.4 S 30 39 16 21 - - 0.0

Other formats

Comma delimited format used in spreadsheet applications
http://www.bom.gov.au/fwo/IDS60801/IDS60801.95683.axf

JavaScript Object Notation format (JSON) in row-major order
http://www.bom.gov.au/fwo/IDS60801/IDS60801.95683.json

Data quality

Most of these data are generated automatically and are frequently updated. Quality checks on data are not normally performed. It is possible for incorrect values to appear. Refer to information at About Latest Weather Observations and please check the disclaimer before using these data.